CFS weather

Coffs Harbour Airport
Coffs Harbour, New South Wales, Australia

Public forecast

Using degrees Celsius for public forecast. Weather courtesy of forecast.io.

METAR (pilot weather report)

Closest report is Grafton Airport, 34.0 nm (62.9 km) N. Retrieved 2017/09/25 10:00 UTC (48 minutes ago):

YGFN 251000Z AUTO 22005KT 9999 // NCD 28/03 Q1009

TAF (pilot weather forecast)

Closest forecast is Taree Airport, 99.1 nm (183.5 km) SSW. Retrieved 2017/09/25 08:03 UTC (3 hours ago):

TAF YTRE 250657Z 2508/2520 23005KT CAVOK